createdAt,value
2023-01-25T00:01:14.100Z,91.38
2023-01-25T00:03:44.335Z,90.99
2023-01-25T00:06:14.624Z,90.76
2023-01-25T00:08:45.011Z,90.76
2023-01-25T00:11:15.368Z,90.17
2023-01-25T00:13:49.738Z,90.43
2023-01-25T00:16:20.160Z,90.43
2023-01-25T00:18:50.727Z,91.14
2023-01-25T00:21:26.949Z,91.34
2023-01-25T00:23:57.453Z,90.02
2023-01-25T00:26:29.742Z,89.57
2023-01-25T00:29:00.548Z,90.14
2023-01-25T00:31:36.817Z,89.53
2023-01-25T00:34:27.243Z,89.53
2023-01-25T00:36:59.964Z,89.12
2023-01-25T00:39:30.648Z,89.31
2023-01-25T00:42:00.913Z,89.31
2023-01-25T00:44:32.838Z,89.04
2023-01-25T00:50:16.295Z,89.88
2023-01-25T00:52:46.241Z,88.83
2023-01-25T00:55:16.793Z,89.12
2023-01-25T00:57:47.196Z,88.83
2023-01-25T01:00:17.717Z,88.83
2023-01-25T01:02:48.662Z,88.95
2023-01-25T01:05:19.191Z,89.65
2023-01-25T01:07:51.063Z,88.90
2023-01-25T01:10:21.518Z,88.25
2023-01-25T01:12:52.566Z,89.50
2023-01-25T01:15:23.159Z,90.33
2023-01-25T01:17:54.107Z,89.12
2023-01-25T01:20:24.442Z,89.32
2023-01-25T01:22:54.830Z,89.89
2023-01-25T01:25:25.204Z,90.20
2023-01-25T01:27:55.495Z,90.84
2023-01-25T01:30:27.187Z,90.10
2023-01-25T01:32:58.227Z,89.87
2023-01-25T01:35:49.186Z,90.77
2023-01-25T01:38:19.787Z,90.72
2023-01-25T01:40:52.160Z,89.59
2023-01-25T01:43:24.867Z,92.15
2023-01-25T01:45:58.180Z,92.15
2023-01-25T01:51:52.994Z,91.18
2023-01-25T01:54:27.264Z,92.19
2023-01-25T01:57:09.567Z,92.57
2023-01-25T01:59:51.673Z,91.78
2023-01-25T02:02:25.253Z,91.20
2023-01-25T02:04:58.617Z,91.20
2023-01-25T02:07:37.367Z,91.14
2023-01-25T02:12:53.371Z,91.55
2023-01-25T02:15:23.809Z,91.55
2023-01-25T02:17:54.852Z,90.70
2023-01-25T02:20:28.061Z,92.10
2023-01-25T02:25:50.723Z,92.24
2023-01-25T02:28:29.772Z,89.44
2023-01-25T02:31:00.099Z,89.44
2023-01-25T02:33:30.484Z,90.30
2023-01-25T02:36:07.201Z,90.97
2023-01-25T02:38:46.620Z,90.97
2023-01-25T02:41:32.486Z,91.34
2023-01-25T02:44:29.430Z,91.33
2023-01-25T02:46:59.683Z,91.14
2023-01-25T02:49:30.609Z,91.09
2023-01-25T02:52:01.382Z,89.70
2023-01-25T02:54:32.088Z,89.70
2023-01-25T02:57:03.751Z,90.77
2023-01-25T02:59:34.150Z,91.69
2023-01-25T03:02:04.516Z,91.69
2023-01-25T03:04:35.046Z,91.26
2023-01-25T03:07:05.453Z,91.31
2023-01-25T03:09:36.028Z,90.22
2023-01-25T03:12:06.733Z,90.22
2023-01-25T03:14:37.593Z,89.52
2023-01-25T03:17:07.930Z,90.25
2023-01-25T03:19:39.312Z,90.25
2023-01-25T03:22:09.701Z,90.96
2023-01-25T03:24:40.162Z,90.39
2023-01-25T03:27:12.930Z,89.95
2023-01-25T03:29:43.210Z,89.95
2023-01-25T03:32:13.624Z,90.08
2023-01-25T03:34:44.040Z,89.53
2023-01-25T03:37:15.957Z,89.53
2023-01-25T03:39:46.302Z,91.16
2023-01-25T03:42:17.213Z,91.37
2023-01-25T03:44:47.494Z,89.46
2023-01-25T03:47:17.910Z,89.37
2023-01-25T03:49:48.435Z,90.94
2023-01-25T03:52:19.556Z,90.84
2023-01-25T03:54:49.770Z,90.84
2023-01-25T03:57:20.759Z,89.95
2023-01-25T03:59:51.137Z,91.40
2023-01-25T04:02:21.726Z,92.67
2023-01-25T04:04:52.397Z,92.42
2023-01-25T04:07:23.388Z,92.35
2023-01-25T04:09:53.831Z,91.62
2023-01-25T04:12:24.356Z,91.06
2023-01-25T04:14:54.470Z,91.06
2023-01-25T04:17:24.971Z,91.13
2023-01-25T04:19:55.303Z,90.57
2023-01-25T08:28:16.684Z,92.84
2023-01-25T08:30:57.269Z,91.34
2023-01-25T08:33:24.082Z,90.48
2023-01-25T08:35:56.203Z,89.53
2023-01-25T08:38:26.939Z,89.53
2023-01-25T08:40:58.640Z,88.93
2023-01-25T08:43:33.943Z,88.70
2023-01-25T08:46:05.144Z,87.30
2023-01-25T08:48:35.744Z,87.30
2023-01-25T08:51:15.027Z,86.76
2023-01-25T08:53:45.775Z,85.92
2023-01-25T08:56:17.995Z,85.92
2023-01-25T08:58:49.852Z,87.41
2023-01-25T09:01:20.994Z,87.76
2023-01-25T09:03:52.031Z,87.71
2023-01-25T09:06:22.233Z,86.94
2023-01-25T09:08:52.773Z,87.30
2023-01-25T09:11:25.089Z,87.26
2023-01-25T09:13:56.020Z,86.72
2023-01-25T09:16:27.085Z,86.72
2023-01-25T09:19:09.156Z,86.03
2023-01-25T09:21:49.801Z,85.40
2023-01-25T09:24:41.684Z,85.59
2023-01-25T09:27:14.921Z,85.75
2023-01-25T09:30:00.064Z,85.75
2023-01-25T09:32:18.121Z,85.19
2023-01-25T09:34:48.440Z,84.21
2023-01-25T09:37:19.005Z,81.80
2023-01-25T09:39:49.443Z,84.41
2023-01-25T09:42:39.402Z,84.41
2023-01-25T09:45:24.459Z,83.71
2023-01-25T09:48:18.471Z,83.02
2023-01-25T09:51:09.560Z,83.56
2023-01-25T09:53:48.325Z,83.30
2023-01-25T09:56:30.330Z,83.82
2023-01-25T09:59:06.595Z,83.90
2023-01-25T10:01:56.002Z,83.41
2023-01-25T10:04:42.352Z,83.41
2023-01-25T10:07:21.915Z,82.71
2023-01-25T10:10:13.707Z,81.70
2023-01-25T10:12:44.755Z,80.30
2023-01-25T10:15:42.064Z,79.96
2023-01-25T10:18:27.917Z,79.96
2023-01-25T10:21:10.063Z,81.03
2023-01-25T10:23:46.628Z,81.03
2023-01-25T10:26:36.536Z,81.87
2023-01-25T10:29:33.198Z,82.71
2023-01-25T10:32:15.289Z,81.45
2023-01-25T10:34:56.760Z,81.69
2023-01-25T10:37:28.697Z,80.20
2023-01-25T10:40:17.377Z,79.11
2023-01-25T10:45:58.180Z,78.92
2023-01-25T10:48:31.447Z,78.76
2023-01-25T10:51:02.437Z,79.96
2023-01-25T10:53:36.133Z,78.72
2023-01-25T10:56:21.267Z,78.72
2023-01-25T10:58:54.762Z,79.83
2023-01-25T11:01:33.592Z,80.25
2023-01-25T11:04:05.487Z,80.25
2023-01-25T11:06:41.298Z,78.72
2023-01-25T11:09:32.699Z,78.14
2023-01-25T11:12:20.843Z,79.50
2023-01-25T11:14:52.493Z,79.53
2023-01-25T11:17:28.634Z,79.53
2023-01-25T11:20:17.458Z,79.49
2023-01-25T11:22:55.880Z,79.46
2023-01-25T11:25:36.965Z,79.95
2023-01-25T11:28:25.224Z,79.73
2023-01-25T11:30:55.647Z,79.82
2023-01-25T11:33:30.043Z,80.97
2023-01-25T11:36:19.889Z,82.25
2023-01-25T11:39:23.822Z,82.13
2023-01-25T11:42:00.123Z,82.09
2023-01-25T11:44:48.668Z,82.09
2023-01-25T11:47:34.395Z,81.97
2023-01-25T11:50:31.855Z,81.58
2023-01-25T11:53:13.765Z,81.58
2023-01-25T11:56:10.693Z,81.11
2023-01-25T12:02:13.088Z,81.50
2023-01-25T12:05:09.728Z,81.28
2023-01-25T12:07:43.816Z,81.30
2023-01-25T12:10:19.970Z,81.48
2023-01-25T12:12:53.329Z,80.79
2023-01-25T12:15:35.341Z,80.79
2023-01-25T12:18:28.941Z,79.52
2023-01-25T12:21:30.890Z,80.64
2023-01-25T12:24:33.338Z,79.83
2023-01-25T12:27:09.149Z,79.83
2023-01-25T12:29:43.089Z,80.20
2023-01-25T12:32:32.100Z,79.34
2023-01-25T12:38:14.816Z,79.10
2023-01-25T12:41:20.520Z,79.10
2023-01-25T12:47:57.814Z,80.76
2023-01-25T12:53:45.528Z,79.46
2023-01-25T12:56:25.985Z,79.04
2023-01-25T12:59:05.791Z,79.04
2023-01-25T13:01:51.436Z,78.63
2023-01-25T13:04:41.423Z,79.34
2023-01-25T13:13:29.388Z,78.47
2023-01-25T13:16:02.751Z,78.47
2023-01-25T13:18:38.621Z,80.77
2023-01-25T13:21:15.434Z,80.74
2023-01-25T13:23:46.421Z,79.12
2023-01-25T13:26:27.758Z,79.76
2023-01-25T13:29:00.925Z,79.43
2023-01-25T13:31:51.590Z,79.90
2023-01-25T13:34:43.694Z,79.90
2023-01-25T13:37:34.386Z,80.99
2023-01-25T17:29:58.403Z,91.87
2023-01-25T17:32:40.633Z,90.35
2023-01-25T17:35:17.338Z,91.76
2023-01-25T17:37:50.280Z,90.62
2023-01-25T17:40:26.903Z,90.62
2023-01-25T17:43:03.877Z,89.19
2023-01-25T17:45:43.762Z,89.29
2023-01-25T17:48:17.189Z,88.49
2023-01-25T17:51:11.846Z,87.03
2023-01-25T17:53:43.017Z,87.77
2023-01-25T17:56:14.326Z,87.33
2023-01-25T17:58:44.996Z,87.33
2023-01-25T18:01:23.564Z,86.46
2023-01-25T18:03:56.403Z,86.33
2023-01-25T18:06:34.974Z,86.33
2023-01-25T18:09:10.086Z,86.32
2023-01-25T18:11:48.114Z,86.04
2023-01-25T18:14:19.729Z,86.04
2023-01-25T18:16:55.952Z,86.06
2023-01-25T18:19:26.787Z,86.90
2023-01-25T18:21:59.657Z,86.72
2023-01-25T18:24:36.084Z,86.72
2023-01-25T18:27:29.211Z,86.06
2023-01-25T18:30:26.608Z,86.46
2023-01-25T18:33:07.211Z,86.46
2023-01-25T18:38:41.908Z,86.43
2023-01-25T18:41:19.177Z,85.51
2023-01-25T18:43:51.418Z,86.21
2023-01-25T18:46:34.081Z,86.03
2023-01-25T18:49:08.122Z,85.76
2023-01-25T18:52:11.434Z,85.75
2023-01-25T18:55:00.645Z,86.03
2023-01-25T18:57:43.150Z,86.69
2023-01-25T19:00:35.653Z,86.32
2023-01-25T19:03:14.361Z,86.38
2023-01-25T19:05:47.726Z,86.00
2023-01-25T19:08:18.445Z,86.65
2023-01-25T19:13:56.498Z,86.39
2023-01-25T19:16:28.310Z,86.97
2023-01-25T19:19:01.960Z,86.97
2023-01-25T19:21:34.212Z,86.75
2023-01-25T19:24:07.138Z,88.01
2023-01-25T19:26:47.899Z,87.44
2023-01-25T19:29:46.500Z,87.44
2023-01-25T19:32:13.960Z,86.30
2023-01-25T19:34:45.587Z,86.82
2023-01-25T19:37:18.677Z,86.82
2023-01-25T19:39:52.034Z,87.44
2023-01-25T19:42:26.997Z,87.70
2023-01-25T19:44:57.672Z,87.64
2023-01-25T19:47:28.172Z,88.70
2023-01-25T19:50:01.184Z,87.44
2023-01-25T19:52:38.254Z,87.99
2023-01-25T19:55:10.216Z,88.68
2023-01-25T19:57:46.090Z,88.68
2023-01-25T20:00:17.812Z,87.77
2023-01-25T20:02:51.543Z,87.77
2023-01-25T20:05:23.037Z,87.53
2023-01-25T20:07:57.002Z,87.69
2023-01-25T20:10:28.798Z,88.21
2023-01-25T20:13:12.739Z,87.76
2023-01-25T20:15:51.803Z,87.76
2023-01-25T20:18:52.466Z,88.04
2023-01-25T20:21:42.068Z,87.69
2023-01-25T20:24:14.284Z,88.01
2023-01-25T20:26:55.337Z,88.01
2023-01-25T20:29:28.999Z,87.94
2023-01-25T20:32:03.796Z,88.03
2023-01-25T20:34:38.276Z,87.82
2023-01-25T20:37:09.225Z,87.82
2023-01-25T20:39:43.131Z,87.75
2023-01-25T20:42:16.528Z,87.75
2023-01-25T20:44:53.291Z,87.96
2023-01-25T20:47:29.672Z,88.11
2023-01-25T20:50:08.374Z,88.68
2023-01-25T20:52:41.424Z,88.04
2023-01-25T20:55:20.037Z,87.45
2023-01-25T20:57:54.610Z,87.74
2023-01-25T21:00:29.846Z,87.47
2023-01-25T21:03:03.035Z,87.69
2023-01-25T21:05:34.175Z,88.41
2023-01-25T21:08:06.021Z,88.25
2023-01-25T21:10:36.362Z,87.97
2023-01-25T21:13:07.302Z,88.31
2023-01-25T21:15:39.275Z,88.36
2023-01-25T21:18:20.165Z,87.84
2023-01-25T21:23:58.262Z,87.99
2023-01-25T21:26:38.481Z,87.81
2023-01-25T21:29:20.186Z,87.81
2023-01-25T21:32:14.930Z,88.03
2023-01-25T21:37:46.189Z,88.61
2023-01-25T21:40:34.292Z,87.15
2023-01-25T21:43:22.819Z,87.36
2023-01-25T21:45:54.998Z,87.84
2023-01-25T21:48:28.789Z,87.44
2023-01-25T21:50:59.855Z,87.44
2023-01-25T21:53:43.403Z,87.41
2023-01-25T21:56:18.548Z,87.41
2023-01-25T21:58:58.005Z,88.55
2023-01-25T22:01:35.043Z,88.70
2023-01-25T22:04:08.869Z,88.55
